Time;durP1;ratioP1;P1;durP2;ratioP2;P2;SDS_P1;SDS_P2;PMS_P1;PMS_P2;Temp;Humidity;BMP_temperature;BMP_pressure;BME280_temperature;BME280_humidity;BME280_pressure;Samples;Min_cycle;Max_cycle;Signal;HPM_P1;HPM_P2
2023/07/17 00:00:19;;;;;;;;;;;;;;;;;;5014917;28;20462;-64
2023/07/17 00:02:45;;;;;;;;;;;;;;;;;;5014777;28;20016;-64
2023/07/17 00:05:11;;;;;;;;;;;;;;;;;;5014969;28;19926;-64
2023/07/17 00:07:37;;;;;;;;;;;;;;;;;;5014978;28;19961;-65
2023/07/17 00:10:03;;;;;;;;;;;;;;;;;;5014798;28;19925;-65
2023/07/17 00:12:29;;;;;;;;;;;;;;;;;;5013644;28;19923;-64
2023/07/17 00:14:55;;;;;;;;;;;;;;;;;;5014003;28;19943;-66
2023/07/17 00:17:21;;;;;;;;;;;;;;;;;;5013707;28;19925;-64
2023/07/17 00:19:47;;;;;;;;;;;;;;;;;;5014221;28;19926;-65
2023/07/17 00:22:13;;;;;;;;;;;;;;;;;;5013958;28;20340;-64
2023/07/17 00:24:39;;;;;;;;;;;;;;;;;;5013741;28;19922;-64
2023/07/17 00:27:05;;;;;;;;;;;;;;;;;;5013009;28;19921;-64
2023/07/17 00:29:31;;;;;;;;;;;;;;;;;;5013059;28;19976;-64
2023/07/17 00:31:56;;;;;;;;;;;;;;;;;;5014417;28;19981;-64
2023/07/17 00:34:22;;;;;;;;;;;;;;;;;;5014455;28;19936;-64
2023/07/17 00:36:48;;;;;;;;;;;;;;;;;;5014259;28;19992;-64
2023/07/17 00:39:14;;;;;;;;;;;;;;;;;;5014147;28;19925;-64
2023/07/17 00:41:40;;;;;;;;;;;;;;;;;;5014258;28;19932;-64
2023/07/17 00:44:06;;;;;;;;;;;;;;;;;;5013963;28;19921;-64
2023/07/17 00:46:32;;;;;;;;;;;;;;;;;;5014352;28;19925;-65
2023/07/17 00:48:58;;;;;;;;;;;;;;;;;;4996456;28;19929;-66
2023/07/17 00:51:24;;;;;;;;;;;;;;;;;;5012655;28;20041;-66
2023/07/17 00:53:50;;;;;;;;;;;;;;;;;;5014099;28;19922;-65
2023/07/17 00:56:15;;;;;;;;;;;;;;;;;;5013881;28;19922;-65
2023/07/17 00:58:41;;;;;;;;;;;;;;;;;;5013711;28;19995;-65
2023/07/17 01:01:08;;;;;;;;;;;;;;;;;;5013915;28;19961;-65
2023/07/17 01:03:34;;;;;;;;;;;;;;;;;;5013977;28;19960;-65
2023/07/17 01:05:59;;;;;;;;;;;;;;;;;;5013688;28;20000;-65
2023/07/17 01:08:25;;;;;;;;;;;;;;;;;;5013846;28;19925;-65
2023/07/17 01:10:51;;;;;;;;;;;;;;;;;;5013633;28;19921;-65
2023/07/17 01:13:17;;;;;;;;;;;;;;;;;;5013626;28;19925;-65
2023/07/17 01:15:43;;;;;;;;;;;;;;;;;;5013446;28;19928;-65
2023/07/17 01:18:09;;;;;;;;;;;;;;;;;;5013556;28;19933;-65
2023/07/17 01:20:35;;;;;;;;;;;;;;;;;;5013495;28;20303;-65
2023/07/17 01:23:01;;;;;;;;;;;;;;;;;;5013485;28;19929;-65
2023/07/17 01:25:27;;;;;;;;;;;;;;;;;;5013230;28;19933;-65
2023/07/17 01:27:53;;;;;;;;;;;;;;;;;;5013445;28;19925;-65
2023/07/17 01:30:19;;;;;;;;;;;;;;;;;;5012537;28;20378;-65
2023/07/17 01:32:45;;;;;;;;;;;;;;;;;;5012506;28;19921;-65
2023/07/17 01:35:11;;;;;;;;;;;;;;;;;;5012570;28;19926;-65
2023/07/17 01:37:37;;;;;;;;;;;;;;;;;;5012349;28;20280;-65
2023/07/17 01:40:03;;;;;;;;;;;;;;;;;;5012350;28;19926;-65
2023/07/17 01:42:29;;;;;;;;;;;;;;;;;;5011590;28;19928;-65
2023/07/17 01:44:54;;;;;;;;;;;;;;;;;;5013185;28;20387;-65
2023/07/17 01:47:20;;;;;;;;;;;;;;;;;;5013312;28;19967;-65
2023/07/17 01:49:46;;;;;;;;;;;;;;;;;;5012972;28;20323;-65
2023/07/17 01:52:12;;;;;;;;;;;;;;;;;;5012797;28;19925;-65
2023/07/17 01:54:38;;;;;;;;;;;;;;;;;;5012361;28;19932;-65
2023/07/17 01:57:04;;;;;;;;;;;;;;;;;;5012637;28;20020;-65
2023/07/17 01:59:30;;;;;;;;;;;;;;;;;;5012634;28;19921;-64
2023/07/17 02:01:56;;;;;;;;;;;;;;;;;;5012775;28;19958;-64
2023/07/17 02:04:22;;;;;;;;;;;;;;;;;;5012894;28;20008;-65
2023/07/17 02:06:48;;;;;;;;;;;;;;;;;;5011425;28;19922;-65
2023/07/17 02:09:13;;;;;;;;;;;;;;;;;;5012641;28;19921;-65
2023/07/17 02:11:39;;;;;;;;;;;;;;;;;;5012495;28;19928;-65
2023/07/17 02:14:05;;;;;;;;;;;;;;;;;;5012411;28;19925;-65
2023/07/17 02:16:32;;;;;;;;;;;;;;;;;;5011663;28;20371;-65
2023/07/17 02:18:58;;;;;;;;;;;;;;;;;;5011729;28;19922;-65
2023/07/17 02:21:24;;;;;;;;;;;;;;;;;;5008433;28;19969;-65
2023/07/17 02:23:50;;;;;;;;;;;;;;;;;;4992461;28;19980;-65
2023/07/17 02:26:16;;;;;;;;;;;;;;;;;;4992407;28;20005;-65
2023/07/17 02:28:42;;;;;;;;;;;;;;;;;;4992698;28;19926;-65
2023/07/17 02:31:08;;;;;;;;;;;;;;;;;;4992773;28;19937;-65
2023/07/17 02:33:34;;;;;;;;;;;;;;;;;;4992561;28;19992;-65
2023/07/17 02:35:59;;;;;;;;;;;;;;;;;;4992564;28;19921;-65
2023/07/17 02:38:25;;;;;;;;;;;;;;;;;;4992560;28;19933;-65
2023/07/17 02:40:51;;;;;;;;;;;;;;;;;;4992428;28;20430;-64
2023/07/17 02:43:17;;;;;;;;;;;;;;;;;;4992819;28;19925;-64
2023/07/17 02:45:43;;;;;;;;;;;;;;;;;;4992697;28;19996;-65
2023/07/17 02:48:09;;;;;;;;;;;;;;;;;;4991027;28;19929;-64
2023/07/17 02:50:35;;;;;;;;;;;;;;;;;;4992534;28;19925;-64
2023/07/17 02:53:02;;;;;;;;;;;;;;;;;;4992232;28;19926;-64
2023/07/17 02:55:28;;;;;;;;;;;;;;;;;;4990968;28;19965;-65
2023/07/17 02:57:54;;;;;;;;;;;;;;;;;;4992150;28;19995;-65
2023/07/17 03:00:20;;;;;;;;;;;;;;;;;;4992311;28;19922;-65
2023/07/17 03:02:45;;;;;;;;;;;;;;;;;;4992428;28;19937;-64
2023/07/17 03:05:11;;;;;;;;;;;;;;;;;;4992395;28;20676;-65
2023/07/17 03:07:37;;;;;;;;;;;;;;;;;;4994737;28;19932;-64
2023/07/17 03:10:03;;;;;;;;;;;;;;;;;;4996333;28;20012;-64
2023/07/17 03:12:29;;;;;;;;;;;;;;;;;;4996128;28;19928;-65
2023/07/17 03:14:55;;;;;;;;;;;;;;;;;;4996365;28;19929;-64
2023/07/17 03:17:21;;;;;;;;;;;;;;;;;;4996099;28;19945;-64
2023/07/17 03:19:47;;;;;;;;;;;;;;;;;;4996140;28;20348;-64
2023/07/17 03:22:13;;;;;;;;;;;;;;;;;;4996024;28;19979;-64
2023/07/17 03:24:39;;;;;;;;;;;;;;;;;;4994684;28;19973;-64
2023/07/17 03:27:04;;;;;;;;;;;;;;;;;;4996153;28;20383;-64
2023/07/17 03:29:30;;;;;;;;;;;;;;;;;;4996097;28;20348;-64
2023/07/17 03:31:56;;;;;;;;;;;;;;;;;;4995795;28;20324;-65
2023/07/17 03:34:22;;;;;;;;;;;;;;;;;;4995678;28;19978;-64
2023/07/17 03:36:48;;;;;;;;;;;;;;;;;;4995370;28;19930;-64
2023/07/17 03:39:14;;;;;;;;;;;;;;;;;;4995235;28;19929;-64
2023/07/17 03:41:40;;;;;;;;;;;;;;;;;;4995345;28;19961;-64
2023/07/17 03:44:06;;;;;;;;;;;;;;;;;;4994931;28;19926;-64
2023/07/17 03:46:32;;;;;;;;;;;;;;;;;;4994809;28;20064;-65
2023/07/17 03:48:58;;;;;;;;;;;;;;;;;;4993435;28;19922;-64
2023/07/17 03:51:24;;;;;;;;;;;;;;;;;;4995041;28;19941;-64
2023/07/17 03:53:50;;;;;;;;;;;;;;;;;;4995470;28;19933;-64
2023/07/17 03:56:16;;;;;;;;;;;;;;;;;;4995510;28;19950;-64
2023/07/17 03:58:42;;;;;;;;;;;;;;;;;;4995392;28;19929;-64
2023/07/17 04:01:07;;;;;;;;;;;;;;;;;;4995353;28;20244;-65
2023/07/17 04:03:33;;;;;;;;;;;;;;;;;;4995151;28;19933;-64
2023/07/17 04:05:59;;;;;;;;;;;;;;;;;;4995270;28;19948;-64
2023/07/17 04:08:25;;;;;;;;;;;;;;;;;;4995183;28;19968;-64
2023/07/17 04:10:51;;;;;;;;;;;;;;;;;;4995488;28;19972;-64
2023/07/17 04:13:17;;;;;;;;;;;;;;;;;;4994422;28;20017;-64
2023/07/17 04:15:43;;;;;;;;;;;;;;;;;;4994376;28;19925;-64
2023/07/17 04:18:09;;;;;;;;;;;;;;;;;;4992795;28;20376;-66
2023/07/17 04:20:35;;;;;;;;;;;;;;;;;;4994380;28;19922;-65
2023/07/17 04:23:01;;;;;;;;;;;;;;;;;;4994054;28;19992;-65
2023/07/17 04:25:27;;;;;;;;;;;;;;;;;;4994974;28;19922;-64
2023/07/17 04:27:53;;;;;;;;;;;;;;;;;;4994904;28;19926;-64
2023/07/17 04:30:19;;;;;;;;;;;;;;;;;;4995103;28;19922;-64
2023/07/17 04:32:45;;;;;;;;;;;;;;;;;;4994888;28;19980;-64
2023/07/17 04:35:10;;;;;;;;;;;;;;;;;;4994854;28;19928;-64
2023/07/17 04:37:36;;;;;;;;;;;;;;;;;;4994534;28;19949;-64
2023/07/17 04:40:05;;;;;;;;;;;;;;;;;;4994714;28;19922;-64
2023/07/17 04:42:30;;;;;;;;;;;;;;;;;;4994710;28;19977;-64
2023/07/17 04:44:56;;;;;;;;;;;;;;;;;;4994546;28;20566;-64
2023/07/17 04:47:22;;;;;;;;;;;;;;;;;;4994560;28;19968;-64
2023/07/17 04:49:49;;;;;;;;;;;;;;;;;;4994337;28;19921;-64
2023/07/17 04:52:15;;;;;;;;;;;;;;;;;;4994256;28;19937;-64
2023/07/17 04:54:40;;;;;;;;;;;;;;;;;;4976767;28;19926;-64
2023/07/17 04:57:06;;;;;;;;;;;;;;;;;;4994528;28;19988;-64
2023/07/17 04:59:32;;;;;;;;;;;;;;;;;;4993001;28;20014;-64
2023/07/17 05:01:58;;;;;;;;;;;;;;;;;;4994292;28;19922;-64
2023/07/17 05:04:24;;;;;;;;;;;;;;;;;;4994001;28;19926;-65
2023/07/17 05:06:50;;;;;;;;;;;;;;;;;;4994086;28;20008;-65
2023/07/17 05:09:16;;;;;;;;;;;;;;;;;;4993959;28;19928;-64
2023/07/17 05:11:42;;;;;;;;;;;;;;;;;;4994192;28;19922;-64
2023/07/17 05:14:08;;;;;;;;;;;;;;;;;;4994047;28;19922;-64
2023/07/17 05:16:34;;;;;;;;;;;;;;;;;;4994091;28;19927;-65
2023/07/17 05:19:00;;;;;;;;;;;;;;;;;;4993974;28;19929;-64
2023/07/17 05:21:26;;;;;;;;;;;;;;;;;;4993803;28;20402;-64
2023/07/17 05:23:52;;;;;;;;;;;;;;;;;;4993918;28;19976;-65
2023/07/17 05:26:18;;;;;;;;;;;;;;;;;;4993786;28;20285;-65
2023/07/17 05:28:44;;;;;;;;;;;;;;;;;;4993377;28;20295;-65
2023/07/17 05:31:10;;;;;;;;;;;;;;;;;;4993343;28;20052;-64
2023/07/17 05:33:35;;;;;;;;;;;;;;;;;;4993594;28;19922;-64
2023/07/17 05:36:02;;;;;;;;;;;;;;;;;;4993502;28;19922;-64
2023/07/17 05:38:28;;;;;;;;;;;;;;;;;;4993416;28;19930;-64
2023/07/17 05:40:54;;;;;;;;;;;;;;;;;;4993477;28;19975;-65
2023/07/17 05:43:20;;;;;;;;;;;;;;;;;;4993222;28;19944;-65
2023/07/17 05:45:45;;;;;;;;;;;;;;;;;;4992088;28;19922;-65
2023/07/17 05:48:11;;;;;;;;;;;;;;;;;;4993259;28;19926;-65
2023/07/17 05:50:37;;;;;;;;;;;;;;;;;;4993064;28;19972;-64
2023/07/17 05:53:03;;;;;;;;;;;;;;;;;;4991839;28;20004;-65
2023/07/17 05:55:29;;;;;;;;;;;;;;;;;;4993097;28;19921;-65
2023/07/17 05:57:55;;;;;;;;;;;;;;;;;;4997457;28;19972;-65
2023/07/17 06:00:21;;;;;;;;;;;;;;;;;;5012833;28;19979;-65
2023/07/17 06:02:47;;;;;;;;;;;;;;;;;;5011723;28;19972;-65
2023/07/17 06:05:13;;;;;;;;;;;;;;;;;;5012530;28;19936;-65
2023/07/17 06:07:39;;;;;;;;;;;;;;;;;;5012716;28;20001;-65
2023/07/17 06:10:05;;;;;;;;;;;;;;;;;;5012550;28;19933;-65
2023/07/17 06:12:31;;;;;;;;;;;;;;;;;;5012099;28;19921;-65
2023/07/17 06:14:57;;;;;;;;;;;;;;;;;;5011821;28;19972;-65
2023/07/17 06:17:23;;;;;;;;;;;;;;;;;;5011934;28;19969;-65
2023/07/17 06:19:49;;;;;;;;;;;;;;;;;;5011595;28;19929;-65
2023/07/17 06:22:15;;;;;;;;;;;;;;;;;;5010497;28;20295;-65
2023/07/17 06:24:41;;;;;;;;;;;;;;;;;;5012131;28;19925;-65
2023/07/17 06:27:07;;;;;;;;;;;;;;;;;;5012358;28;20051;-65
2023/07/17 06:29:33;;;;;;;;;;;;;;;;;;5011057;28;20420;-65
2023/07/17 06:31:59;;;;;;;;;;;;;;;;;;5012296;28;20019;-65
2023/07/17 06:34:25;;;;;;;;;;;;;;;;;;5010772;28;19975;-65
2023/07/17 06:36:51;;;;;;;;;;;;;;;;;;5012365;28;19980;-65
2023/07/17 06:39:17;;;;;;;;;;;;;;;;;;5012353;28;20326;-65
2023/07/17 06:41:43;;;;;;;;;;;;;;;;;;5010581;28;19936;-65
2023/07/17 06:44:09;;;;;;;;;;;;;;;;;;5012019;28;19952;-65
2023/07/17 06:46:34;;;;;;;;;;;;;;;;;;5011985;28;19926;-65
2023/07/17 06:49:00;;;;;;;;;;;;;;;;;;5012204;28;19922;-65
2023/07/17 06:51:26;;;;;;;;;;;;;;;;;;5011863;28;19925;-65
2023/07/17 06:53:52;;;;;;;;;;;;;;;;;;5012024;28;19948;-65
2023/07/17 06:56:18;;;;;;;;;;;;;;;;;;5011898;28;19921;-65
2023/07/17 06:58:44;;;;;;;;;;;;;;;;;;5012167;28;19968;-66
2023/07/17 07:01:11;;;;;;;;;;;;;;;;;;5010626;28;20657;-65
2023/07/17 07:03:37;;;;;;;;;;;;;;;;;;5011866;28;19922;-66
2023/07/17 07:06:06;;;;;;;;;;;;;;;;;;5011549;28;19926;-65
2023/07/17 07:08:32;;;;;;;;;;;;;;;;;;5011512;28;19929;-65
2023/07/17 07:10:58;;;;;;;;;;;;;;;;;;5010103;28;19929;-65
2023/07/17 07:13:24;;;;;;;;;;;;;;;;;;5011533;28;20326;-65
2023/07/17 07:15:50;;;;;;;;;;;;;;;;;;5011183;28;20371;-65
2023/07/17 07:18:16;;;;;;;;;;;;;;;;;;5011070;28;20383;-66
2023/07/17 07:20:42;;;;;;;;;;;;;;;;;;5011066;28;19922;-66
2023/07/17 07:23:08;;;;;;;;;;;;;;;;;;5011008;28;19952;-66
2023/07/17 07:25:34;;;;;;;;;;;;;;;;;;5010823;28;19929;-66
2023/07/17 07:28:00;;;;;;;;;;;;;;;;;;5011167;28;20024;-65
2023/07/17 07:30:26;;;;;;;;;;;;;;;;;;5009555;28;19921;-65
2023/07/17 07:32:52;;;;;;;;;;;;;;;;;;5011252;28;20364;-65
2023/07/17 07:35:18;;;;;;;;;;;;;;;;;;5011919;28;19925;-65
2023/07/17 07:37:44;;;;;;;;;;;;;;;;;;5010115;28;20024;-66
2023/07/17 07:40:11;;;;;;;;;;;;;;;;;;5011654;28;19925;-65
2023/07/17 07:42:37;;;;;;;;;;;;;;;;;;5011558;28;20017;-65
2023/07/17 07:45:03;;;;;;;;;;;;;;;;;;5011490;28;20019;-65
2023/07/17 07:47:30;;;;;;;;;;;;;;;;;;5011614;28;19925;-66
2023/07/17 07:49:56;;;;;;;;;;;;;;;;;;5011601;28;20316;-66
2023/07/17 07:52:21;;;;;;;;;;;;;;;;;;5010103;28;19988;-66
2023/07/17 07:54:47;;;;;;;;;;;;;;;;;;5015178;28;19949;-65
2023/07/17 07:57:14;;;;;;;;;;;;;;;;;;5014975;28;19980;-65
2023/07/17 07:59:40;;;;;;;;;;;;;;;;;;5015073;28;19976;-65
2023/07/17 08:02:05;;;;;;;;;;;;;;;;;;5015170;28;20335;-65
2023/07/17 08:04:31;;;;;;;;;;;;;;;;;;5015076;28;19926;-65
2023/07/17 08:06:57;;;;;;;;;;;;;;;;;;5014982;28;19925;-65
2023/07/17 08:09:24;;;;;;;;;;;;;;;;;;5014898;28;19925;-66
2023/07/17 08:11:52;;;;;;;;;;;;;;;;;;5013554;28;21374;-66
2023/07/17 08:14:20;;;;;;;;;;;;;;;;;;5014099;28;19925;-67
2023/07/17 08:16:46;;;;;;;;;;;;;;;;;;5014253;28;19952;-65
2023/07/17 08:19:12;;;;;;;;;;;;;;;;;;5013152;28;20028;-65
2023/07/17 08:21:38;;;;;;;;;;;;;;;;;;5014375;28;20611;-65
2023/07/17 08:24:04;;;;;;;;;;;;;;;;;;5014645;28;19927;-65
2023/07/17 08:26:31;;;;;;;;;;;;;;;;;;5014407;28;20268;-65
2023/07/17 08:28:57;;;;;;;;;;;;;;;;;;5014369;28;19928;-65
2023/07/17 08:31:23;;;;;;;;;;;;;;;;;;5014490;28;19925;-65
2023/07/17 08:33:48;;;;;;;;;;;;;;;;;;5014435;28;19930;-65
2023/07/17 08:36:14;;;;;;;;;;;;;;;;;;5012107;28;20330;-65
2023/07/17 08:38:40;;;;;;;;;;;;;;;;;;4995227;28;19930;-65
2023/07/17 08:41:06;;;;;;;;;;;;;;;;;;4993370;28;20273;-65
2023/07/17 08:43:32;;;;;;;;;;;;;;;;;;4994522;28;20261;-65
2023/07/17 08:45:58;;;;;;;;;;;;;;;;;;4994847;28;20008;-65
2023/07/17 08:48:24;;;;;;;;;;;;;;;;;;4993271;28;19922;-65
2023/07/17 08:50:50;;;;;;;;;;;;;;;;;;4994629;28;19922;-65
2023/07/17 08:53:17;;;;;;;;;;;;;;;;;;4994237;28;20380;-65
2023/07/17 08:55:42;;;;;;;;;;;;;;;;;;4994333;28;20588;-65
2023/07/17 08:58:09;;;;;;;;;;;;;;;;;;4994040;28;19926;-65
2023/07/17 09:00:35;;;;;;;;;;;;;;;;;;4994192;28;19926;-65
2023/07/17 09:03:00;;;;;;;;;;;;;;;;;;4994176;28;19929;-65
2023/07/17 09:05:26;;;;;;;;;;;;;;;;;;4992996;28;19922;-65
2023/07/17 09:07:52;;;;;;;;;;;;;;;;;;5015164;23;19926;-61
2023/07/17 09:10:21;;;;;;;;;;;;;;;;;;5013520;28;19979;-61
2023/07/17 09:12:47;;;;;;;;;;;;;;;;;;5013382;28;20385;-61
2023/07/17 09:15:13;;;;;;;;;;;;;;;;;;5013568;28;19922;-61
2023/07/17 09:17:39;;;;;;;;;;;;;;;;;;5012343;28;19930;-61
2023/07/17 09:20:07;;;;;;;;;;;;;;;;;;5013576;28;20582;-61
2023/07/17 09:22:33;;;;;;;;;;;;;;;;;;5013410;28;20012;-61
2023/07/17 09:24:59;;;;;;;;;;;;;;;;;;5013201;28;20012;-61
2023/07/17 09:27:25;;;;;;;;;;;;;;;;;;5013262;28;19921;-61
2023/07/17 09:29:51;;;;;;;;;;;;;;;;;;5013526;28;19922;-61
2023/07/17 09:32:18;;;;;;;;;;;;;;;;;;5013361;28;20299;-61
2023/07/17 09:34:44;;;;;;;;;;;;;;;;;;4995491;28;19926;-61
2023/07/17 09:37:10;;;;;;;;;;;;;;;;;;5013201;28;19964;-61
2023/07/17 09:39:36;;;;;;;;;;;;;;;;;;5012985;28;19925;-62
2023/07/17 09:42:02;;;;;;;;;;;;;;;;;;5011716;28;20012;-62
2023/07/17 09:44:28;;;;;;;;;;;;;;;;;;5013028;28;20036;-61
2023/07/17 09:46:54;;;;;;;;;;;;;;;;;;5013271;28;20025;-61
2023/07/17 09:49:20;;;;;;;;;;;;;;;;;;5012961;28;19921;-61
2023/07/17 09:51:46;;;;;;;;;;;;;;;;;;5013000;28;19928;-61
2023/07/17 09:54:12;;;;;;;;;;;;;;;;;;5012799;28;19925;-61
2023/07/17 09:56:37;;;;;;;;;;;;;;;;;;5012992;28;20008;-61
2023/07/17 09:59:04;;;;;;;;;;;;;;;;;;5012407;28;19929;-61
2023/07/17 10:01:30;;;;;;;;;;;;;;;;;;5012415;28;20008;-61
2023/07/17 10:03:56;;;;;;;;;;;;;;;;;;5012357;28;19988;-61
2023/07/17 10:06:21;;;;;;;;;;;;;;;;;;5012118;28;19928;-62
2023/07/17 10:08:47;;;;;;;;;;;;;;;;;;5011824;28;19928;-61
2023/07/17 10:11:14;;;;;;;;;;;;;;;;;;5012718;28;20004;-61
2023/07/17 10:13:40;;;;;;;;;;;;;;;;;;5012597;28;19932;-61
2023/07/17 10:16:06;;;;;;;;;;;;;;;;;;5012100;28;19921;-61
2023/07/17 10:18:32;;;;;;;;;;;;;;;;;;5012471;28;19952;-61
2023/07/17 10:20:58;;;;;;;;;;;;;;;;;;5012504;28;20317;-62
2023/07/17 10:23:24;;;;;;;;;;;;;;;;;;5012333;28;19929;-61
2023/07/17 10:25:50;;;;;;;;;;;;;;;;;;5012548;28;19961;-61
2023/07/17 10:28:16;;;;;;;;;;;;;;;;;;5012514;28;19932;-61
2023/07/17 10:30:42;;;;;;;;;;;;;;;;;;5012420;28;19926;-61
2023/07/17 10:33:08;;;;;;;;;;;;;;;;;;5012406;28;19922;-62
2023/07/17 10:35:34;;;;;;;;;;;;;;;;;;5012275;28;19976;-62
2023/07/17 10:38:00;;;;;;;;;;;;;;;;;;5012292;28;20299;-62
2023/07/17 10:40:28;;;;;;;;;;;;;;;;;;5010814;28;19925;-61
2023/07/17 10:42:54;;;;;;;;;;;;;;;;;;5012211;28;20381;-61
2023/07/17 10:45:20;;;;;;;;;;;;;;;;;;5012074;28;19921;-61
2023/07/17 10:47:46;;;;;;;;;;;;;;;;;;5012145;28;19930;-61
2023/07/17 10:50:12;;;;;;;;;;;;;;;;;;5010652;28;20264;-61
2023/07/17 10:52:38;;;;;;;;;;;;;;;;;;5011911;28;19921;-61
2023/07/17 10:55:04;;;;;;;;;;;;;;;;;;5010914;28;19928;-61
2023/07/17 10:57:30;;;;;;;;;;;;;;;;;;5011843;28;19929;-61
2023/07/17 10:59:56;;;;;;;;;;;;;;;;;;5011837;28;19928;-61
2023/07/17 11:02:22;;;;;;;;;;;;;;;;;;5012043;28;19921;-61
2023/07/17 11:04:48;;;;;;;;;;;;;;;;;;5011907;28;19921;-62
2023/07/17 11:07:14;;;;;;;;;;;;;;;;;;5010505;28;19956;-61
2023/07/17 11:09:40;;;;;;;;;;;;;;;;;;5012060;28;19922;-62
2023/07/17 11:12:06;;;;;;;;;;;;;;;;;;5012120;28;19968;-62
2023/07/17 11:14:32;;;;;;;;;;;;;;;;;;5011850;28;19964;-61
2023/07/17 11:16:58;;;;;;;;;;;;;;;;;;5011783;28;20422;-62
2023/07/17 11:19:24;;;;;;;;;;;;;;;;;;5011724;28;19921;-61
2023/07/17 11:21:50;;;;;;;;;;;;;;;;;;5011658;28;20378;-61
2023/07/17 11:24:15;;;;;;;;;;;;;;;;;;5011714;28;19928;-61
2023/07/17 11:26:41;;;;;;;;;;;;;;;;;;5011536;28;19927;-62
2023/07/17 11:29:07;;;;;;;;;;;;;;;;;;5014905;28;19921;-61
2023/07/17 11:31:33;;;;;;;;;;;;;;;;;;5015489;28;19968;-62
2023/07/17 11:33:59;;;;;;;;;;;;;;;;;;5015538;28;19921;-61
2023/07/17 11:36:25;;;;;;;;;;;;;;;;;;5015371;28;19932;-61
2023/07/17 11:38:51;;;;;;;;;;;;;;;;;;5014128;28;19926;-61
2023/07/17 11:41:17;;;;;;;;;;;;;;;;;;5015433;28;19922;-62
2023/07/17 11:43:43;;;;;;;;;;;;;;;;;;5014179;28;19926;-61
2023/07/17 11:46:11;;;;;;;;;;;;;;;;;;5015407;28;19929;-61
2023/07/17 11:48:37;;;;;;;;;;;;;;;;;;5015317;28;19948;-61
2023/07/17 11:51:02;;;;;;;;;;;;;;;;;;5015083;28;20364;-61
2023/07/17 11:53:28;;;;;;;;;;;;;;;;;;5015199;28;19928;-62
2023/07/17 11:55:55;;;;;;;;;;;;;;;;;;5015118;28;20035;-62
2023/07/17 11:58:21;;;;;;;;;;;;;;;;;;5014875;28;20305;-61
2023/07/17 12:00:47;;;;;;;;;;;;;;;;;;5014574;28;19921;-61
2023/07/17 12:03:12;;;;;;;;;;;;;;;;;;5014652;28;19927;-62
2023/07/17 12:05:38;;;;;;;;;;;;;;;;;;5014436;28;19925;-61
2023/07/17 12:08:04;;;;;;;;;;;;;;;;;;5013121;28;19940;-61
2023/07/17 12:10:30;;;;;;;;;;;;;;;;;;5014700;28;19988;-61
2023/07/17 12:12:56;;;;;;;;;;;;;;;;;;5014817;28;20000;-61
2023/07/17 12:15:22;;;;;;;;;;;;;;;;;;5014530;28;19925;-61
2023/07/17 12:17:48;;;;;;;;;;;;;;;;;;5014630;28;19925;-61
2023/07/17 12:20:15;;;;;;;;;;;;;;;;;;5014958;28;19926;-61
2023/07/17 12:22:41;;;;;;;;;;;;;;;;;;5014700;28;20249;-61
2023/07/17 12:25:07;;;;;;;;;;;;;;;;;;5014799;28;19976;-61
2023/07/17 12:27:33;;;;;;;;;;;;;;;;;;5014444;28;19975;-61
2023/07/17 12:29:59;;;;;;;;;;;;;;;;;;5014489;28;19926;-61
2023/07/17 12:32:25;;;;;;;;;;;;;;;;;;5014328;28;19925;-61
2023/07/17 12:34:51;;;;;;;;;;;;;;;;;;5014571;28;19921;-62
2023/07/17 12:37:17;;;;;;;;;;;;;;;;;;5014207;28;20318;-61
2023/07/17 12:39:42;;;;;;;;;;;;;;;;;;5014060;28;20000;-61
2023/07/17 12:42:08;;;;;;;;;;;;;;;;;;5014238;28;19925;-61
2023/07/17 12:44:34;;;;;;;;;;;;;;;;;;5014334;28;19925;-61
2023/07/17 12:47:01;;;;;;;;;;;;;;;;;;5014194;28;19922;-61
2023/07/17 12:49:27;;;;;;;;;;;;;;;;;;5014293;28;20003;-61
2023/07/17 12:51:53;;;;;;;;;;;;;;;;;;5013906;28;20012;-61
2023/07/17 12:54:19;;;;;;;;;;;;;;;;;;5014133;28;19929;-61
2023/07/17 12:56:44;;;;;;;;;;;;;;;;;;5013896;28;19926;-61
2023/07/17 12:59:10;;;;;;;;;;;;;;;;;;5012713;28;20015;-61
2023/07/17 13:01:36;;;;;;;;;;;;;;;;;;5013586;28;20366;-61
2023/07/17 13:04:02;;;;;;;;;;;;;;;;;;5013675;28;19948;-61
2023/07/17 13:06:28;;;;;;;;;;;;;;;;;;5012223;28;19972;-61
2023/07/17 13:08:54;;;;;;;;;;;;;;;;;;5012406;28;20024;-61
2023/07/17 13:11:20;;;;;;;;;;;;;;;;;;5013607;28;19929;-61
2023/07/17 13:13:46;;;;;;;;;;;;;;;;;;5013102;28;19921;-61
2023/07/17 13:16:12;;;;;;;;;;;;;;;;;;5012773;28;20532;-61
2023/07/17 13:18:38;;;;;;;;;;;;;;;;;;5013036;28;19930;-61
2023/07/17 13:21:04;;;;;;;;;;;;;;;;;;5013264;28;20122;-62
2023/07/17 13:23:30;;;;;;;;;;;;;;;;;;5012799;28;19922;-61
2023/07/17 13:25:56;;;;;;;;;;;;;;;;;;5012773;28;20012;-62
2023/07/17 13:28:22;;;;;;;;;;;;;;;;;;5012427;28;20284;-62
2023/07/17 13:30:48;;;;;;;;;;;;;;;;;;5012546;28;19928;-62
2023/07/17 13:33:13;;;;;;;;;;;;;;;;;;5011193;28;20311;-62
2023/07/17 13:35:39;;;;;;;;;;;;;;;;;;5012565;28;19937;-61
2023/07/17 13:38:05;;;;;;;;;;;;;;;;;;5012522;28;19932;-61
2023/07/17 13:40:31;;;;;;;;;;;;;;;;;;5012219;28;19921;-61
2023/07/17 13:42:57;;;;;;;;;;;;;;;;;;5012900;28;19961;-61
2023/07/17 13:45:23;;;;;;;;;;;;;;;;;;5013079;28;19926;-61
2023/07/17 13:47:49;;;;;;;;;;;;;;;;;;5013225;28;19932;-61
2023/07/17 13:50:15;;;;;;;;;;;;;;;;;;5012316;28;19995;-61
2023/07/17 13:52:41;;;;;;;;;;;;;;;;;;5013055;28;19961;-61
2023/07/17 13:55:06;;;;;;;;;;;;;;;;;;5013035;28;19957;-61
2023/07/17 13:57:32;;;;;;;;;;;;;;;;;;5012875;28;19933;-61
2023/07/17 13:59:58;;;;;;;;;;;;;;;;;;5012452;28;20009;-61
2023/07/17 14:02:24;;;;;;;;;;;;;;;;;;5012245;28;19921;-61
2023/07/17 14:04:50;;;;;;;;;;;;;;;;;;5012357;28;20464;-61
2023/07/17 14:07:16;;;;;;;;;;;;;;;;;;5011854;28;19933;-61
2023/07/17 14:09:42;;;;;;;;;;;;;;;;;;5011935;28;19929;-61
2023/07/17 14:12:08;;;;;;;;;;;;;;;;;;5012359;28;19936;-61
2023/07/17 14:14:34;;;;;;;;;;;;;;;;;;5012280;28;20466;-61
2023/07/17 14:17:00;;;;;;;;;;;;;;;;;;5012585;28;19936;-61
2023/07/17 14:19:25;;;;;;;;;;;;;;;;;;5012537;28;19929;-61
2023/07/17 14:21:51;;;;;;;;;;;;;;;;;;5012513;28;19921;-61
2023/07/17 14:24:18;;;;;;;;;;;;;;;;;;5012360;28;20534;-62
2023/07/17 14:26:44;;;;;;;;;;;;;;;;;;5012499;28;19922;-61
2023/07/17 14:29:09;;;;;;;;;;;;;;;;;;5012162;28;19922;-61
2023/07/17 14:31:35;;;;;;;;;;;;;;;;;;5012540;28;19921;-61
2023/07/17 14:34:01;;;;;;;;;;;;;;;;;;5012573;28;20372;-61
2023/07/17 14:36:27;;;;;;;;;;;;;;;;;;5012384;28;19988;-61
2023/07/17 14:38:53;;;;;;;;;;;;;;;;;;5012231;28;19925;-61
2023/07/17 14:41:19;;;;;;;;;;;;;;;;;;5012263;28;19921;-61
2023/07/17 14:43:45;;;;;;;;;;;;;;;;;;5012154;28;19925;-61
2023/07/17 14:46:11;;;;;;;;;;;;;;;;;;5012070;28;19921;-61
2023/07/17 14:48:37;;;;;;;;;;;;;;;;;;5012193;28;19921;-61
2023/07/17 14:51:03;;;;;;;;;;;;;;;;;;5010156;28;19929;-61
2023/07/17 14:53:30;;;;;;;;;;;;;;;;;;4992728;28;19926;-61
2023/07/17 14:55:56;;;;;;;;;;;;;;;;;;4992464;28;19921;-61
2023/07/17 14:58:22;;;;;;;;;;;;;;;;;;4992129;28;20476;-61
2023/07/17 15:00:48;;;;;;;;;;;;;;;;;;4992553;28;19987;-61
2023/07/17 15:03:14;;;;;;;;;;;;;;;;;;4995525;28;19926;-61
2023/07/17 15:05:40;;;;;;;;;;;;;;;;;;4996308;28;19937;-61
2023/07/17 15:08:06;;;;;;;;;;;;;;;;;;4996217;28;19976;-61
2023/07/17 15:10:31;;;;;;;;;;;;;;;;;;4996269;28;20496;-61
2023/07/17 15:12:57;;;;;;;;;;;;;;;;;;4994840;28;20037;-61
2023/07/17 15:15:23;;;;;;;;;;;;;;;;;;4996312;28;19976;-61
2023/07/17 15:17:50;;;;;;;;;;;;;;;;;;4996109;28;20363;-61
2023/07/17 15:20:15;;;;;;;;;;;;;;;;;;4996098;28;19922;-61
2023/07/17 15:22:43;;;;;;;;;;;;;;;;;;4996152;28;20446;-61
2023/07/17 15:25:08;;;;;;;;;;;;;;;;;;4994992;28;20429;-61
2023/07/17 15:27:34;;;;;;;;;;;;;;;;;;4995961;28;20052;-61
2023/07/17 15:30:00;;;;;;;;;;;;;;;;;;4996094;28;19921;-61
2023/07/17 15:32:26;;;;;;;;;;;;;;;;;;4996152;28;20399;-61
2023/07/17 15:34:52;;;;;;;;;;;;;;;;;;4996009;28;19922;-61
2023/07/17 15:37:18;;;;;;;;;;;;;;;;;;4995886;28;20319;-61
2023/07/17 15:39:44;;;;;;;;;;;;;;;;;;4995737;28;19932;-61
2023/07/17 15:42:10;;;;;;;;;;;;;;;;;;5010797;28;20607;-61
2023/07/17 15:44:36;;;;;;;;;;;;;;;;;;4995825;28;19928;-61
2023/07/17 15:47:02;;;;;;;;;;;;;;;;;;4995763;28;20252;-61
2023/07/17 15:49:28;;;;;;;;;;;;;;;;;;4994180;28;19972;-61
2023/07/17 15:51:53;;;;;;;;;;;;;;;;;;4994288;28;19941;-61
2023/07/17 15:54:19;;;;;;;;;;;;;;;;;;4995372;28;20423;-61
2023/07/17 15:56:46;;;;;;;;;;;;;;;;;;4995316;28;19964;-61
2023/07/17 15:59:12;;;;;;;;;;;;;;;;;;4994044;28;19983;-61
2023/07/17 16:01:38;;;;;;;;;;;;;;;;;;4994871;28;19965;-61
2023/07/17 16:04:04;;;;;;;;;;;;;;;;;;4994715;28;19922;-61
2023/07/17 16:06:30;;;;;;;;;;;;;;;;;;5009704;28;20391;-61
2023/07/17 16:08:55;;;;;;;;;;;;;;;;;;4994579;28;19926;-61
2023/07/17 16:11:21;;;;;;;;;;;;;;;;;;4994414;28;19992;-61
2023/07/17 16:13:47;;;;;;;;;;;;;;;;;;4994628;28;19948;-61
2023/07/17 16:16:13;;;;;;;;;;;;;;;;;;4994846;28;19922;-61
2023/07/17 16:18:39;;;;;;;;;;;;;;;;;;4995110;28;19983;-61
2023/07/17 16:21:05;;;;;;;;;;;;;;;;;;4994998;28;20315;-61
2023/07/17 16:23:32;;;;;;;;;;;;;;;;;;4995106;28;19975;-61
2023/07/17 16:25:57;;;;;;;;;;;;;;;;;;4993564;28;20578;-61
2023/07/17 16:28:23;;;;;;;;;;;;;;;;;;4995051;28;19925;-61
2023/07/17 16:30:49;;;;;;;;;;;;;;;;;;4994925;28;19922;-61
2023/07/17 16:33:15;;;;;;;;;;;;;;;;;;4994927;28;20375;-61
2023/07/17 16:35:41;;;;;;;;;;;;;;;;;;4994693;28;20402;-61